| Date | Time | Temp. (oF) | Dew Point (oF) | Rel. Hum. (%) | Press. (in.) | Wind Dir. | Wind Speed (mph) | Hourly Rainfall (in.) |
|
|---|---|---|---|---|---|---|---|---|---|
| 1 | 04/21 | 00:00 | 58 | 54 | 89 | 29.55 | W | 9 | 0.00 |
| 2 | 04/20 | 23:00 | 68 | 58 | 72 | 29.49 | S | 12 | 0.00 |
| 3 | 04/20 | 22:00 | 69 | 62 | 80 | 29.46 | SSW | 12 | 0.00 |
| 4 | 04/20 | 21:00 | 69 | 61 | 77 | 29.47 | SE | 4 | 0.00 |
| 5 | 04/20 | 20:00 | 71 | 61 | 72 | 29.48 | SSE | 4 | 0.00 |
| 6 | 04/20 | 19:00 | 73 | 61 | 67 | 29.49 | ESE | 5 | 0.00 |
| 7 | 04/20 | 18:00 | 73 | 60 | 66 | 29.50 | SSE | 2 | 0.00 |
| 8 | 04/20 | 17:00 | 73 | 58 | 61 | 29.51 | S | 11 | 0.00 |
| 9 | 04/20 | 16:00 | 75 | 61 | 62 | 29.51 | SE | 0 | 0.00 |
| 10 | 04/20 | 15:00 | 74 | 61 | 66 | 29.54 | ESE | 0 | 0.00 |
| 11 | 04/20 | 14:00 | 71 | 63 | 77 | 29.58 | ENE | 3 | 0.00 |
| 12 | 04/20 | 13:00 | 66 | 62 | 88 | 29.60 | E | 7 | 0.00 |
| 13 | 04/20 | 12:00 | 63 | 60 | 92 | 29.62 | ENE | 4 | 0.00 |
| 14 | 04/20 | 11:00 | 60 | 56 | 88 | 29.64 | NE | 5 | 0.00 |
| 15 | 04/20 | 10:00 | 57 | 53 | 89 | 29.65 | NE | 4 | 0.01 |
| 16 | 04/20 | 09:00 | 56 | 52 | 89 | 29.65 | NNE | 4 | 0.03 |
| 17 | 04/20 | 08:00 | 55 | 52 | 91 | 29.67 | E | 5 | 0.02 |
| 18 | 04/20 | 07:00 | 53 | 50 | 92 | 29.67 | ESE | 8 | 0.02 |
| 19 | 04/20 | 06:00 | 52 | 49 | 92 | 29.69 | ESE | 7 | 0.17 |
| 20 | 04/20 | 05:00 | 50 | 48 | 93 | 29.71 | SE | 8 | 0.16 |
| 21 | 04/20 | 04:00 | 49 | 47 | 94 | 29.74 | ESE | 22 | 0.09 |
| 22 | 04/20 | 03:00 | 49 | 47 | 94 | 29.80 | SE | 17 | 0.03 |
| 23 | 04/20 | 02:00 | 48 | 45 | 92 | 29.85 | ESE | 18 | 0.00 |
| 24 | 04/20 | 01:00 | 48 | 44 | 89 | 29.90 | E | 22 | 0.00 |